Accueil
METAR-TAF:

METAR-TAF

Aéroports :

Altenstadt, Allemagne

latitude: 47-50N, longitude: 010-52E, altitude: 739 m

Observation

Le bulletin a été fait il y a 47 minutes, à 10:20 UTC
Vent 14 kt de nord-ouest
Température 5°C
Humidité 93%
Pression 1009 hPa

METAR: ETHA 251020Z AUTO 32014KT //// // ////// 05/04 Q1009 ///

Heure: 12:07 (11:07 UTC)

Prévision

Le bulletin a été fait il y a 23 heures et 11 minutes, à 11:56 UTC
Prévision valable du 24 à 09 UTC au 24 à 18 UTC
Vent 7 kt de ouest/sud-ouest
Visibilité: 1215 m
Quelques nuages à une hauteur de 10000 ft
Nuages fragmentés à une hauteur de 25000 ft

TAF: ETHA 241156Z 2409/2418 25007KT 9999 NSW FEW100 BKN250 CANCEL 1215

Observations et prévisions météorologiques de plus de 4000 aéroports (messages METAR et TAF).

Les stations disponibles sont représentées par des disques jaunes et rouges sur la carte.

Passer la souris dessus pour voir le nom de la station.

Cliquer dessus pour voir les observations et prévisions météorologiques.

Pour changer de carte: cliquez sur les boutons verts avec une croix noire pour zoomer, sur le bouton vert avec un tiret pour effectuer un zoom arrière, ou sur les flèches vertes pour les cartes adjacentes.


METAR-TAF: